sensor_id;sensor_type;location;lat;lon;timestamp;pressure;altitude;pressure_sealevel;temperature;humidity
2711;BME280;20721;47.402;8.550;2023-01-29T00:00:38;96882;;;3.19;52.85
2711;BME280;20721;47.402;8.550;2023-01-29T00:01:38;96888;;;3.20;52.85
2711;BME280;20721;47.402;8.550;2023-01-29T00:02:38;96889;;;3.22;52.87
2711;BME280;20721;47.402;8.550;2023-01-29T00:03:38;96888;;;3.26;52.86
2711;BME280;20721;47.402;8.550;2023-01-29T00:04:38;96884;;;3.29;52.76
2711;BME280;20721;47.402;8.550;2023-01-29T00:05:38;96887;;;3.34;52.58
2711;BME280;20721;47.402;8.550;2023-01-29T00:07:38;96889;;;3.35;52.55
2711;BME280;20721;47.402;8.550;2023-01-29T00:08:38;96890;;;3.34;52.49
2711;BME280;20721;47.402;8.550;2023-01-29T00:09:39;96886;;;3.36;52.49
2711;BME280;20721;47.402;8.550;2023-01-29T00:10:38;96886;;;3.38;52.54
2711;BME280;20721;47.402;8.550;2023-01-29T00:11:38;96890;;;3.39;52.53
2711;BME280;20721;47.402;8.550;2023-01-29T00:12:38;96891;;;3.37;52.58
2711;BME280;20721;47.402;8.550;2023-01-29T00:13:38;96891;;;3.36;52.56
2711;BME280;20721;47.402;8.550;2023-01-29T00:14:38;96891;;;3.35;52.58
2711;BME280;20721;47.402;8.550;2023-01-29T00:15:38;96893;;;3.28;52.65
2711;BME280;20721;47.402;8.550;2023-01-29T00:16:38;96895;;;3.30;52.68
2711;BME280;20721;47.402;8.550;2023-01-29T00:18:38;96895;;;3.27;52.68
2711;BME280;20721;47.402;8.550;2023-01-29T00:19:38;96894;;;3.28;52.71
2711;BME280;20721;47.402;8.550;2023-01-29T00:20:38;96895;;;3.29;52.63
2711;BME280;20721;47.402;8.550;2023-01-29T00:21:38;96891;;;3.21;52.84
2711;BME280;20721;47.402;8.550;2023-01-29T00:22:38;96894;;;3.22;52.87
2711;BME280;20721;47.402;8.550;2023-01-29T00:23:38;96895;;;3.24;52.84
2711;BME280;20721;47.402;8.550;2023-01-29T00:24:38;96892;;;3.22;52.82
2711;BME280;20721;47.402;8.550;2023-01-29T00:25:38;96893;;;3.23;52.77
2711;BME280;20721;47.402;8.550;2023-01-29T00:26:39;96892;;;3.26;52.82
2711;BME280;20721;47.402;8.550;2023-01-29T00:27:38;96891;;;3.31;52.74
2711;BME280;20721;47.402;8.550;2023-01-29T00:28:38;96890;;;3.34;52.60
2711;BME280;20721;47.402;8.550;2023-01-29T00:29:38;96887;;;3.37;52.55
2711;BME280;20721;47.402;8.550;2023-01-29T00:30:38;96890;;;3.36;52.36
2711;BME280;20721;47.402;8.550;2023-01-29T00:31:38;96891;;;3.39;52.44
2711;BME280;20721;47.402;8.550;2023-01-29T00:32:39;96890;;;3.41;52.50
2711;BME280;20721;47.402;8.550;2023-01-29T00:33:38;96893;;;3.43;52.34
2711;BME280;20721;47.402;8.550;2023-01-29T00:34:38;96885;;;3.45;52.37
2711;BME280;20721;47.402;8.550;2023-01-29T00:35:38;96890;;;3.50;52.33
2711;BME280;20721;47.402;8.550;2023-01-29T00:36:38;96887;;;3.55;52.19
2711;BME280;20721;47.402;8.550;2023-01-29T00:37:38;96884;;;3.58;52.16
2711;BME280;20721;47.402;8.550;2023-01-29T00:38:38;96885;;;3.60;51.99
2711;BME280;20721;47.402;8.550;2023-01-29T00:39:48;96883;;;3.58;51.87
2711;BME280;20721;47.402;8.550;2023-01-29T00:40:48;96878;;;3.56;51.94
2711;BME280;20721;47.402;8.550;2023-01-29T00:41:48;96881;;;3.55;51.98
2711;BME280;20721;47.402;8.550;2023-01-29T00:42:48;96881;;;3.56;52.00
2711;BME280;20721;47.402;8.550;2023-01-29T00:43:48;96884;;;3.54;52.11
2711;BME280;20721;47.402;8.550;2023-01-29T00:44:48;96883;;;3.52;52.18
2711;BME280;20721;47.402;8.550;2023-01-29T00:46:38;96887;;;3.50;52.02
2711;BME280;20721;47.402;8.550;2023-01-29T00:47:38;96887;;;3.42;52.18
2711;BME280;20721;47.402;8.550;2023-01-29T00:48:38;96879;;;3.35;52.39
2711;BME280;20721;47.402;8.550;2023-01-29T00:49:38;96883;;;3.29;52.40
2711;BME280;20721;47.402;8.550;2023-01-29T00:50:38;96887;;;3.30;52.55
2711;BME280;20721;47.402;8.550;2023-01-29T00:51:38;96883;;;3.31;52.53
2711;BME280;20721;47.402;8.550;2023-01-29T00:52:40;96882;;;3.30;52.50
2711;BME280;20721;47.402;8.550;2023-01-29T00:53:38;96880;;;3.26;52.47
2711;BME280;20721;47.402;8.550;2023-01-29T00:54:38;96879;;;3.13;52.59
2711;BME280;20721;47.402;8.550;2023-01-29T00:55:38;96880;;;3.10;52.77
2711;BME280;20721;47.402;8.550;2023-01-29T00:56:38;96884;;;3.04;52.99
2711;BME280;20721;47.402;8.550;2023-01-29T00:57:38;96885;;;2.98;53.08
2711;BME280;20721;47.402;8.550;2023-01-29T00:58:38;96882;;;2.97;53.20
2711;BME280;20721;47.402;8.550;2023-01-29T00:59:38;96882;;;2.94;53.16
2711;BME280;20721;47.402;8.550;2023-01-29T01:01:48;96878;;;2.96;53.20
2711;BME280;20721;47.402;8.550;2023-01-29T01:02:48;96879;;;2.93;53.26
2711;BME280;20721;47.402;8.550;2023-01-29T01:03:41;96876;;;2.94;53.29
2711;BME280;20721;47.402;8.550;2023-01-29T01:04:38;96879;;;2.96;53.30
2711;BME280;20721;47.402;8.550;2023-01-29T01:05:38;96878;;;2.97;53.16
2711;BME280;20721;47.402;8.550;2023-01-29T01:07:39;96884;;;3.02;53.30
2711;BME280;20721;47.402;8.550;2023-01-29T01:08:48;96884;;;3.05;53.23
2711;BME280;20721;47.402;8.550;2023-01-29T01:09:48;96879;;;3.00;53.19
2711;BME280;20721;47.402;8.550;2023-01-29T01:10:38;96875;;;2.98;53.17
2711;BME280;20721;47.402;8.550;2023-01-29T01:11:38;96880;;;2.96;53.38
2711;BME280;20721;47.402;8.550;2023-01-29T01:12:38;96881;;;2.98;53.32
2711;BME280;20721;47.402;8.550;2023-01-29T01:13:38;96886;;;2.91;53.35
2711;BME280;20721;47.402;8.550;2023-01-29T01:14:42;96891;;;2.90;53.60
2711;BME280;20721;47.402;8.550;2023-01-29T01:15:38;96897;;;2.85;53.84
2711;BME280;20721;47.402;8.550;2023-01-29T01:16:38;96903;;;2.73;53.80
2711;BME280;20721;47.402;8.550;2023-01-29T01:17:38;96901;;;2.66;54.02
2711;BME280;20721;47.402;8.550;2023-01-29T01:18:38;96907;;;2.70;54.10
2711;BME280;20721;47.402;8.550;2023-01-29T01:19:38;96906;;;2.71;54.10
2711;BME280;20721;47.402;8.550;2023-01-29T01:20:38;96905;;;2.75;54.10
2711;BME280;20721;47.402;8.550;2023-01-29T01:21:38;96910;;;2.79;53.95
2711;BME280;20721;47.402;8.550;2023-01-29T01:22:38;96907;;;2.84;53.85
2711;BME280;20721;47.402;8.550;2023-01-29T01:23:38;96918;;;2.81;53.78
2711;BME280;20721;47.402;8.550;2023-01-29T01:24:38;96915;;;2.80;53.87
2711;BME280;20721;47.402;8.550;2023-01-29T01:26:38;96924;;;2.81;53.89
2711;BME280;20721;47.402;8.550;2023-01-29T01:27:40;96924;;;2.83;53.88
2711;BME280;20721;47.402;8.550;2023-01-29T01:28:38;96920;;;2.86;53.84
2711;BME280;20721;47.402;8.550;2023-01-29T01:29:38;96920;;;2.89;53.73
2711;BME280;20721;47.402;8.550;2023-01-29T01:30:38;96921;;;2.93;53.63
2711;BME280;20721;47.402;8.550;2023-01-29T01:31:38;96921;;;2.96;53.61
2711;BME280;20721;47.402;8.550;2023-01-29T01:32:38;96923;;;2.98;53.48
2711;BME280;20721;47.402;8.550;2023-01-29T01:33:39;96923;;;2.97;53.44
2711;BME280;20721;47.402;8.550;2023-01-29T01:34:38;96929;;;2.94;53.51
2711;BME280;20721;47.402;8.550;2023-01-29T01:35:39;96933;;;2.96;53.58
2711;BME280;20721;47.402;8.550;2023-01-29T01:36:38;96934;;;2.99;53.54
2711;BME280;20721;47.402;8.550;2023-01-29T01:37:38;96935;;;2.98;53.56
2711;BME280;20721;47.402;8.550;2023-01-29T01:39:38;96931;;;2.96;53.55
2711;BME280;20721;47.402;8.550;2023-01-29T01:40:42;96931;;;2.93;53.73
2711;BME280;20721;47.402;8.550;2023-01-29T01:41:38;96931;;;2.90;53.82
2711;BME280;20721;47.402;8.550;2023-01-29T01:42:39;96932;;;2.87;53.78
2711;BME280;20721;47.402;8.550;2023-01-29T01:43:55;96934;;;2.81;53.98
2711;BME280;20721;47.402;8.550;2023-01-29T01:45:39;96934;;;2.73;54.20
2711;BME280;20721;47.402;8.550;2023-01-29T01:46:38;96932;;;2.75;54.18
2711;BME280;20721;47.402;8.550;2023-01-29T01:47:40;96934;;;2.74;54.19
2711;BME280;20721;47.402;8.550;2023-01-29T01:48:38;96929;;;2.75;54.25
2711;BME280;20721;47.402;8.550;2023-01-29T01:49:39;96928;;;2.84;54.18
2711;BME280;20721;47.402;8.550;2023-01-29T01:50:55;96930;;;2.93;54.00
2711;BME280;20721;47.402;8.550;2023-01-29T01:51:39;96931;;;3.00;53.78
2711;BME280;20721;47.402;8.550;2023-01-29T01:52:39;96927;;;3.04;53.63
2711;BME280;20721;47.402;8.550;2023-01-29T01:53:40;96933;;;3.03;53.54
2711;BME280;20721;47.402;8.550;2023-01-29T01:54:38;96928;;;2.91;53.55
2711;BME280;20721;47.402;8.550;2023-01-29T01:55:40;96924;;;2.79;53.91
2711;BME280;20721;47.402;8.550;2023-01-29T01:56:41;96927;;;2.74;54.06
2711;BME280;20721;47.402;8.550;2023-01-29T01:57:39;96922;;;2.72;54.15
2711;BME280;20721;47.402;8.550;2023-01-29T01:58:39;96920;;;2.74;54.22
2711;BME280;20721;47.402;8.550;2023-01-29T01:59:38;96924;;;2.76;54.19
2711;BME280;20721;47.402;8.550;2023-01-29T02:00:39;96923;;;2.80;54.11
2711;BME280;20721;47.402;8.550;2023-01-29T02:01:42;96928;;;2.76;54.15
2711;BME280;20721;47.402;8.550;2023-01-29T02:02:48;96929;;;2.74;54.20
2711;BME280;20721;47.402;8.550;2023-01-29T02:03:49;96928;;;2.72;54.15
2711;BME280;20721;47.402;8.550;2023-01-29T02:04:48;96929;;;2.74;54.16
2711;BME280;20721;47.402;8.550;2023-01-29T02:05:48;96930;;;2.78;54.11
2711;BME280;20721;47.402;8.550;2023-01-29T02:06:48;96931;;;2.84;54.12
2711;BME280;20721;47.402;8.550;2023-01-29T02:07:48;96933;;;2.86;53.90
2711;BME280;20721;47.402;8.550;2023-01-29T02:08:53;96928;;;2.89;53.79
2711;BME280;20721;47.402;8.550;2023-01-29T02:09:40;96928;;;2.84;53.87
2711;BME280;20721;47.402;8.550;2023-01-29T02:10:43;96926;;;2.86;53.87
2711;BME280;20721;47.402;8.550;2023-01-29T02:11:38;96929;;;2.87;53.92
2711;BME280;20721;47.402;8.550;2023-01-29T02:12:38;96930;;;2.83;53.81
2711;BME280;20721;47.402;8.550;2023-01-29T02:13:39;96929;;;2.75;53.97
2711;BME280;20721;47.402;8.550;2023-01-29T02:14:39;96934;;;2.70;54.22
2711;BME280;20721;47.402;8.550;2023-01-29T02:15:41;96937;;;2.68;54.23
2711;BME280;20721;47.402;8.550;2023-01-29T02:16:38;96941;;;2.63;54.42
2711;BME280;20721;47.402;8.550;2023-01-29T02:17:38;96943;;;2.66;54.56
2711;BME280;20721;47.402;8.550;2023-01-29T02:20:40;96943;;;2.49;54.83
2711;BME280;20721;47.402;8.550;2023-01-29T02:23:44;96941;;;2.66;54.70
2711;BME280;20721;47.402;8.550;2023-01-29T02:26:44;96934;;;2.89;53.93
2711;BME280;20721;47.402;8.550;2023-01-29T02:28:49;96938;;;2.92;53.81
2711;BME280;20721;47.402;8.550;2023-01-29T02:29:43;96937;;;2.79;54.02
2711;BME280;20721;47.402;8.550;2023-01-29T02:31:40;96941;;;2.80;54.13
2711;BME280;20721;47.402;8.550;2023-01-29T02:32:40;96934;;;2.84;54.04
2711;BME280;20721;47.402;8.550;2023-01-29T02:33:40;96937;;;2.90;53.94
2711;BME280;20721;47.402;8.550;2023-01-29T02:34:51;96937;;;2.87;53.78
2711;BME280;20721;47.402;8.550;2023-01-29T02:35:41;96938;;;2.89;53.90
2711;BME280;20721;47.402;8.550;2023-01-29T02:36:42;96938;;;2.95;53.41
2711;BME280;20721;47.402;8.550;2023-01-29T02:37:41;96937;;;2.93;53.13
2711;BME280;20721;47.402;8.550;2023-01-29T02:38:44;96934;;;2.79;53.48
2711;BME280;20721;47.402;8.550;2023-01-29T02:39:56;96936;;;2.76;53.74
2711;BME280;20721;47.402;8.550;2023-01-29T02:40:55;96936;;;2.80;53.74
2711;BME280;20721;47.402;8.550;2023-01-29T02:42:43;96932;;;2.93;53.47
2711;BME280;20721;47.402;8.550;2023-01-29T02:43:47;96939;;;3.00;53.47
2711;BME280;20721;47.402;8.550;2023-01-29T02:44:41;96934;;;3.05;53.30
2711;BME280;20721;47.402;8.550;2023-01-29T02:45:43;96934;;;3.06;53.05
2711;BME280;20721;47.402;8.550;2023-01-29T02:46:43;96928;;;3.10;53.06
2711;BME280;20721;47.402;8.550;2023-01-29T02:48:40;96923;;;3.14;53.07
2711;BME280;20721;47.402;8.550;2023-01-29T02:49:44;96924;;;3.18;53.10
2711;BME280;20721;47.402;8.550;2023-01-29T02:50:42;96921;;;3.10;52.92
2711;BME280;20721;47.402;8.550;2023-01-29T02:51:49;96919;;;3.05;53.08
2711;BME280;20721;47.402;8.550;2023-01-29T02:52:40;96919;;;2.92;53.00
2711;BME280;20721;47.402;8.550;2023-01-29T02:53:41;96920;;;2.69;53.62
2711;BME280;20721;47.402;8.550;2023-01-29T02:55:41;96923;;;2.73;53.76
2711;BME280;20721;47.402;8.550;2023-01-29T02:56:41;96921;;;2.66;53.73
2711;BME280;20721;47.402;8.550;2023-01-29T02:57:39;96921;;;2.67;53.95
2711;BME280;20721;47.402;8.550;2023-01-29T02:58:41;96922;;;2.71;53.75
2711;BME280;20721;47.402;8.550;2023-01-29T02:59:39;96920;;;2.75;53.55
2711;BME280;20721;47.402;8.550;2023-01-29T03:00:40;96918;;;2.83;53.53
2711;BME280;20721;47.402;8.550;2023-01-29T03:01:42;96915;;;2.91;53.28
2711;BME280;20721;47.402;8.550;2023-01-29T03:03:39;96915;;;2.96;52.74
2711;BME280;20721;47.402;8.550;2023-01-29T03:04:43;96917;;;3.00;52.67
2711;BME280;20721;47.402;8.550;2023-01-29T03:05:48;96914;;;2.78;52.81
2711;BME280;20721;47.402;8.550;2023-01-29T03:06:40;96914;;;2.63;53.27
2711;BME280;20721;47.402;8.550;2023-01-29T03:07:42;96913;;;2.58;53.42
2711;BME280;20721;47.402;8.550;2023-01-29T03:08:42;96913;;;2.55;53.54
2711;BME280;20721;47.402;8.550;2023-01-29T03:09:40;96915;;;2.61;53.65
2711;BME280;20721;47.402;8.550;2023-01-29T03:10:39;96917;;;2.70;53.62
2711;BME280;20721;47.402;8.550;2023-01-29T03:11:42;96920;;;2.79;53.39
2711;BME280;20721;47.402;8.550;2023-01-29T03:14:48;96917;;;2.84;53.04
2711;BME280;20721;47.402;8.550;2023-01-29T03:15:42;96922;;;2.87;52.90
2711;BME280;20721;47.402;8.550;2023-01-29T03:16:39;96918;;;2.85;52.86
2711;BME280;20721;47.402;8.550;2023-01-29T03:17:40;96925;;;2.80;52.90
2711;BME280;20721;47.402;8.550;2023-01-29T03:18:43;96922;;;2.82;52.92
2711;BME280;20721;47.402;8.550;2023-01-29T03:19:40;96925;;;2.87;52.87
2711;BME280;20721;47.402;8.550;2023-01-29T03:20:40;96920;;;2.91;52.77
2711;BME280;20721;47.402;8.550;2023-01-29T03:21:50;96921;;;2.86;52.67
2711;BME280;20721;47.402;8.550;2023-01-29T03:22:39;96922;;;2.82;52.56
2711;BME280;20721;47.402;8.550;2023-01-29T03:23:48;96922;;;2.58;52.86
2711;BME280;20721;47.402;8.550;2023-01-29T03:24:49;96923;;;2.53;53.44
2711;BME280;20721;47.402;8.550;2023-01-29T03:25:50;96923;;;2.51;53.41
2711;BME280;20721;47.402;8.550;2023-01-29T03:26:49;96923;;;2.54;52.99
2711;BME280;20721;47.402;8.550;2023-01-29T03:27:51;96923;;;2.56;52.79
2711;BME280;20721;47.402;8.550;2023-01-29T03:29:49;96921;;;2.60;52.64
2711;BME280;20721;47.402;8.550;2023-01-29T03:30:52;96915;;;2.63;52.54
2711;BME280;20721;47.402;8.550;2023-01-29T03:31:49;96918;;;2.62;52.65
2711;BME280;20721;47.402;8.550;2023-01-29T03:33:42;96921;;;2.68;52.61
2711;BME280;20721;47.402;8.550;2023-01-29T03:34:42;96921;;;2.74;52.51
2711;BME280;20721;47.402;8.550;2023-01-29T03:35:40;96926;;;2.71;52.49
2711;BME280;20721;47.402;8.550;2023-01-29T03:36:47;96922;;;2.51;52.78
2711;BME280;20721;47.402;8.550;2023-01-29T03:37:40;96929;;;2.40;53.16
2711;BME280;20721;47.402;8.550;2023-01-29T03:38:39;96926;;;2.42;53.41
2711;BME280;20721;47.402;8.550;2023-01-29T03:39:39;96924;;;2.50;53.24
2711;BME280;20721;47.402;8.550;2023-01-29T03:40:45;96919;;;2.48;52.97
2711;BME280;20721;47.402;8.550;2023-01-29T03:41:47;96926;;;2.34;53.28
2711;BME280;20721;47.402;8.550;2023-01-29T03:42:43;96925;;;2.33;53.33
2711;BME280;20721;47.402;8.550;2023-01-29T03:44:44;96917;;;2.57;53.11
2711;BME280;20721;47.402;8.550;2023-01-29T03:45:46;96916;;;2.68;52.69
2711;BME280;20721;47.402;8.550;2023-01-29T03:46:41;96916;;;2.78;52.54
2711;BME280;20721;47.402;8.550;2023-01-29T03:48:40;96917;;;2.79;52.35
2711;BME280;20721;47.402;8.550;2023-01-29T03:52:43;96912;;;2.76;52.58
2711;BME280;20721;47.402;8.550;2023-01-29T03:53:47;96912;;;2.80;52.39
2711;BME280;20721;47.402;8.550;2023-01-29T03:55:41;96913;;;2.61;52.70
2711;BME280;20721;47.402;8.550;2023-01-29T03:57:40;96912;;;2.61;53.01
2711;BME280;20721;47.402;8.550;2023-01-29T03:59:57;96908;;;2.62;52.67
2711;BME280;20721;47.402;8.550;2023-01-29T04:01:40;96907;;;2.66;52.58
2711;BME280;20721;47.402;8.550;2023-01-29T04:02:48;96903;;;2.64;52.68
2711;BME280;20721;47.402;8.550;2023-01-29T04:03:40;96902;;;2.72;52.62
2711;BME280;20721;47.402;8.550;2023-01-29T04:04:40;96902;;;2.73;52.29
2711;BME280;20721;47.402;8.550;2023-01-29T04:05:42;96901;;;2.70;52.37
2711;BME280;20721;47.402;8.550;2023-01-29T04:06:39;96903;;;2.54;52.58
2711;BME280;20721;47.402;8.550;2023-01-29T04:07:39;96898;;;2.44;53.02
2711;BME280;20721;47.402;8.550;2023-01-29T04:08:55;96895;;;2.46;52.97
2711;BME280;20721;47.402;8.550;2023-01-29T04:09:41;96897;;;2.49;52.80
2711;BME280;20721;47.402;8.550;2023-01-29T04:10:39;96898;;;2.51;52.91
2711;BME280;20721;47.402;8.550;2023-01-29T04:11:40;96894;;;2.56;52.81
2711;BME280;20721;47.402;8.550;2023-01-29T04:12:42;96902;;;2.57;52.64
2711;BME280;20721;47.402;8.550;2023-01-29T04:13:39;96899;;;2.37;51.62
2711;BME280;20721;47.402;8.550;2023-01-29T04:14:39;96901;;;2.28;52.22
2711;BME280;20721;47.402;8.550;2023-01-29T04:15:41;96903;;;2.29;52.14
2711;BME280;20721;47.402;8.550;2023-01-29T04:16:41;96903;;;2.33;52.15
2711;BME280;20721;47.402;8.550;2023-01-29T04:17:39;96902;;;2.39;52.13
2711;BME280;20721;47.402;8.550;2023-01-29T04:18:39;96904;;;2.40;52.19
2711;BME280;20721;47.402;8.550;2023-01-29T04:19:39;96906;;;2.50;52.30
2711;BME280;20721;47.402;8.550;2023-01-29T04:20:39;96896;;;2.52;52.01
2711;BME280;20721;47.402;8.550;2023-01-29T04:22:39;96895;;;2.49;52.06
2711;BME280;20721;47.402;8.550;2023-01-29T04:23:39;96893;;;2.46;52.27
2711;BME280;20721;47.402;8.550;2023-01-29T04:24:39;96897;;;2.55;52.37
2711;BME280;20721;47.402;8.550;2023-01-29T04:25:42;96899;;;2.67;52.32
2711;BME280;20721;47.402;8.550;2023-01-29T04:28:44;96890;;;2.89;51.38
2711;BME280;20721;47.402;8.550;2023-01-29T04:29:42;96896;;;2.76;51.51
2711;BME280;20721;47.402;8.550;2023-01-29T04:31:42;96890;;;2.80;51.67
2711;BME280;20721;47.402;8.550;2023-01-29T04:33:43;96891;;;2.86;51.05
2711;BME280;20721;47.402;8.550;2023-01-29T04:34:44;96886;;;2.87;50.72
2711;BME280;20721;47.402;8.550;2023-01-29T04:35:43;96890;;;2.82;50.59
2711;BME280;20721;47.402;8.550;2023-01-29T04:37:43;96890;;;2.81;51.05
2711;BME280;20721;47.402;8.550;2023-01-29T04:39:43;96883;;;2.92;50.67
2711;BME280;20721;47.402;8.550;2023-01-29T04:41:58;96882;;;2.97;50.28
2711;BME280;20721;47.402;8.550;2023-01-29T04:42:41;96885;;;2.93;50.39
2711;BME280;20721;47.402;8.550;2023-01-29T04:43:41;96887;;;2.92;50.65
2711;BME280;20721;47.402;8.550;2023-01-29T04:45:44;96890;;;2.81;50.36
2711;BME280;20721;47.402;8.550;2023-01-29T04:46:43;96892;;;2.70;50.31
2711;BME280;20721;47.402;8.550;2023-01-29T04:47:43;96889;;;2.72;50.58
2711;BME280;20721;47.402;8.550;2023-01-29T04:50:40;96892;;;2.60;50.87
2711;BME280;20721;47.402;8.550;2023-01-29T04:51:42;96892;;;2.56;50.66
2711;BME280;20721;47.402;8.550;2023-01-29T04:54:50;96898;;;2.25;51.55
2711;BME280;20721;47.402;8.550;2023-01-29T04:55:40;96904;;;2.23;51.95
2711;BME280;20721;47.402;8.550;2023-01-29T04:56:41;96900;;;2.29;52.00
2711;BME280;20721;47.402;8.550;2023-01-29T04:57:42;96898;;;2.39;52.11
2711;BME280;20721;47.402;8.550;2023-01-29T04:58:40;96898;;;2.54;51.90
2711;BME280;20721;47.402;8.550;2023-01-29T04:59:40;96898;;;2.62;51.60
2711;BME280;20721;47.402;8.550;2023-01-29T05:00:41;96894;;;2.58;51.34
2711;BME280;20721;47.402;8.550;2023-01-29T05:01:39;96896;;;2.56;51.51
2711;BME280;20721;47.402;8.550;2023-01-29T05:02:40;96892;;;2.60;51.60
2711;BME280;20721;47.402;8.550;2023-01-29T05:03:40;96893;;;2.65;51.53
2711;BME280;20721;47.402;8.550;2023-01-29T05:04:39;96893;;;2.73;51.47
2711;BME280;20721;47.402;8.550;2023-01-29T05:05:40;96893;;;2.76;51.36
2711;BME280;20721;47.402;8.550;2023-01-29T05:06:39;96894;;;2.65;51.22
2711;BME280;20721;47.402;8.550;2023-01-29T05:07:39;96891;;;2.62;51.14
2711;BME280;20721;47.402;8.550;2023-01-29T05:08:39;96896;;;2.63;51.56
2711;BME280;20721;47.402;8.550;2023-01-29T05:09:39;96896;;;2.70;51.60
2711;BME280;20721;47.402;8.550;2023-01-29T05:10:39;96899;;;2.80;51.23
2711;BME280;20721;47.402;8.550;2023-01-29T05:11:39;96900;;;2.87;51.18
2711;BME280;20721;47.402;8.550;2023-01-29T05:12:39;96901;;;2.59;51.13
2711;BME280;20721;47.402;8.550;2023-01-29T05:13:40;96907;;;2.51;51.59
2711;BME280;20721;47.402;8.550;2023-01-29T05:14:39;96910;;;2.50;51.83
2711;BME280;20721;47.402;8.550;2023-01-29T05:15:40;96908;;;2.57;51.76
2711;BME280;20721;47.402;8.550;2023-01-29T05:16:44;96914;;;2.66;51.69
2711;BME280;20721;47.402;8.550;2023-01-29T05:17:39;96914;;;2.74;51.60
2711;BME280;20721;47.402;8.550;2023-01-29T05:18:39;96914;;;2.81;51.33
2711;BME280;20721;47.402;8.550;2023-01-29T05:19:39;96917;;;2.85;50.95
2711;BME280;20721;47.402;8.550;2023-01-29T05:20:40;96921;;;2.84;50.79
2711;BME280;20721;47.402;8.550;2023-01-29T05:21:42;96922;;;2.87;50.72
2711;BME280;20721;47.402;8.550;2023-01-29T05:22:39;96926;;;2.92;50.62
2711;BME280;20721;47.402;8.550;2023-01-29T05:24:05;96926;;;2.91;50.73
2711;BME280;20721;47.402;8.550;2023-01-29T05:24:39;96926;;;2.96;50.74
2711;BME280;20721;47.402;8.550;2023-01-29T05:25:39;96927;;;2.99;50.39
2711;BME280;20721;47.402;8.550;2023-01-29T05:26:50;96928;;;3.02;50.62
2711;BME280;20721;47.402;8.550;2023-01-29T05:27:49;96929;;;2.96;50.47
2711;BME280;20721;47.402;8.550;2023-01-29T05:28:39;96931;;;2.98;50.71
2711;BME280;20721;47.402;8.550;2023-01-29T05:29:40;96928;;;3.03;50.63
2711;BME280;20721;47.402;8.550;2023-01-29T05:30:39;96927;;;3.08;50.40
2711;BME280;20721;47.402;8.550;2023-01-29T05:31:39;96928;;;3.11;50.31
2711;BME280;20721;47.402;8.550;2023-01-29T05:32:39;96928;;;3.13;50.16
2711;BME280;20721;47.402;8.550;2023-01-29T05:33:39;96922;;;3.14;50.10
2711;BME280;20721;47.402;8.550;2023-01-29T05:34:39;96929;;;3.06;50.08
2711;BME280;20721;47.402;8.550;2023-01-29T05:35:39;96931;;;3.04;50.25
2711;BME280;20721;47.402;8.550;2023-01-29T05:36:39;96929;;;3.01;50.23
2711;BME280;20721;47.402;8.550;2023-01-29T05:37:39;96932;;;2.93;50.23
2711;BME280;20721;47.402;8.550;2023-01-29T05:38:39;96928;;;2.86;50.49
2711;BME280;20721;47.402;8.550;2023-01-29T05:39:39;96930;;;2.81;50.50
2711;BME280;20721;47.402;8.550;2023-01-29T05:40:39;96930;;;2.82;50.57
2711;BME280;20721;47.402;8.550;2023-01-29T05:42:39;96938;;;2.81;50.68
2711;BME280;20721;47.402;8.550;2023-01-29T05:43:39;96937;;;2.78;50.66
2711;BME280;20721;47.402;8.550;2023-01-29T05:44:39;96939;;;2.74;50.70
2711;BME280;20721;47.402;8.550;2023-01-29T05:45:39;96940;;;2.73;50.70
2711;BME280;20721;47.402;8.550;2023-01-29T05:46:39;96941;;;2.65;50.79
2711;BME280;20721;47.402;8.550;2023-01-29T05:47:39;96946;;;2.57;50.96
2711;BME280;20721;47.402;8.550;2023-01-29T05:48:39;96947;;;2.51;51.20
2711;BME280;20721;47.402;8.550;2023-01-29T05:49:39;96950;;;2.47;51.36
2711;BME280;20721;47.402;8.550;2023-01-29T05:50:39;96948;;;2.44;51.47
2711;BME280;20721;47.402;8.550;2023-01-29T05:51:39;96951;;;2.24;51.88
2711;BME280;20721;47.402;8.550;2023-01-29T05:52:39;96951;;;2.25;52.20
2711;BME280;20721;47.402;8.550;2023-01-29T05:53:39;96954;;;2.31;52.15
2711;BME280;20721;47.402;8.550;2023-01-29T05:54:39;96953;;;2.40;51.91
2711;BME280;20721;47.402;8.550;2023-01-29T05:55:39;96953;;;2.50;51.42
2711;BME280;20721;47.402;8.550;2023-01-29T05:56:39;96956;;;2.49;51.43
2711;BME280;20721;47.402;8.550;2023-01-29T05:57:39;96959;;;2.45;51.36
2711;BME280;20721;47.402;8.550;2023-01-29T05:58:39;96958;;;2.41;51.42
2711;BME280;20721;47.402;8.550;2023-01-29T05:59:39;96964;;;2.34;51.46
2711;BME280;20721;47.402;8.550;2023-01-29T06:00:39;96961;;;2.24;51.68
2711;BME280;20721;47.402;8.550;2023-01-29T06:01:39;96967;;;2.18;51.83
2711;BME280;20721;47.402;8.550;2023-01-29T06:02:39;96967;;;2.22;52.03
2711;BME280;20721;47.402;8.550;2023-01-29T06:03:39;96970;;;2.26;51.97
2711;BME280;20721;47.402;8.550;2023-01-29T06:04:39;96966;;;2.30;51.86
2711;BME280;20721;47.402;8.550;2023-01-29T06:05:39;96968;;;2.28;52.03
2711;BME280;20721;47.402;8.550;2023-01-29T06:06:39;96968;;;2.30;51.84
2711;BME280;20721;47.402;8.550;2023-01-29T06:07:44;96964;;;2.33;51.86
2711;BME280;20721;47.402;8.550;2023-01-29T06:08:39;96961;;;2.35;52.09
2711;BME280;20721;47.402;8.550;2023-01-29T06:09:39;96966;;;2.42;51.87
2711;BME280;20721;47.402;8.550;2023-01-29T06:10:39;96966;;;2.44;51.88
2711;BME280;20721;47.402;8.550;2023-01-29T06:12:39;96968;;;2.37;51.88
2711;BME280;20721;47.402;8.550;2023-01-29T06:13:39;96976;;;2.41;52.00
2711;BME280;20721;47.402;8.550;2023-01-29T06:14:39;96972;;;2.49;51.78
2711;BME280;20721;47.402;8.550;2023-01-29T06:15:39;96977;;;2.58;51.82
2711;BME280;20721;47.402;8.550;2023-01-29T06:16:39;96980;;;2.64;51.39
2711;BME280;20721;47.402;8.550;2023-01-29T06:17:39;96973;;;2.67;51.28
2711;BME280;20721;47.402;8.550;2023-01-29T06:18:39;96968;;;2.76;51.13
2711;BME280;20721;47.402;8.550;2023-01-29T06:19:39;96965;;;2.85;50.93
2711;BME280;20721;47.402;8.550;2023-01-29T06:20:39;96968;;;2.75;50.71
2711;BME280;20721;47.402;8.550;2023-01-29T06:21:39;96966;;;2.61;50.73
2711;BME280;20721;47.402;8.550;2023-01-29T06:22:39;96963;;;2.46;50.77
2711;BME280;20721;47.402;8.550;2023-01-29T06:23:39;96968;;;2.42;50.91
2711;BME280;20721;47.402;8.550;2023-01-29T06:24:39;96975;;;2.41;51.19
2711;BME280;20721;47.402;8.550;2023-01-29T06:25:39;96973;;;2.34;51.27
2711;BME280;20721;47.402;8.550;2023-01-29T06:26:39;96973;;;2.38;51.37
2711;BME280;20721;47.402;8.550;2023-01-29T06:27:39;96973;;;2.36;51.29
2711;BME280;20721;47.402;8.550;2023-01-29T06:28:39;96975;;;2.30;51.32